Time;durP1;ratioP1;P1;durP2;ratioP2;P2;SDS_P1;SDS_P2;PMS_P1;PMS_P2;Temp;Humidity;BMP_temperature;BMP_pressure;BME280_temperature;BME280_humidity;BME280_pressure;Samples;Min_cycle;Max_cycle;Signal;HPM_P1;HPM_P2
2021/08/21 00:00:15;;;;;;;10.27;5.80;;;;;;;17.61;100.00;96117.25;1032271;28;20026;-79
2021/08/21 00:00:45;;;;;;;10.60;6.40;;;;;;;17.61;100.00;96119.94;1028662;28;20033;-79
2021/08/21 00:01:16;;;;;;;8.27;5.70;;;;;;;17.62;100.00;96120.75;1032431;28;20439;-78
2021/08/21 00:01:46;;;;;;;11.70;6.20;;;;;;;17.62;100.00;96121.53;1032250;28;20090;-78
2021/08/21 00:02:17;;;;;;;8.43;5.73;;;;;;;17.63;100.00;96120.41;1032254;28;20030;-79
2021/08/21 00:02:47;;;;;;;9.93;6.00;;;;;;;17.66;100.00;96119.81;1024152;28;20465;-79
2021/08/21 00:03:17;;;;;;;8.00;5.70;;;;;;;17.64;100.00;96118.50;1024327;28;20011;-78
2021/08/21 00:03:48;;;;;;;11.53;5.93;;;;;;;17.64;100.00;96121.22;1028216;28;20432;-79
2021/08/21 00:04:18;;;;;;;11.83;6.00;;;;;;;17.64;100.00;96115.81;1036356;28;20041;-79
2021/08/21 00:04:51;;;;;;;11.53;6.07;;;;;;;17.64;100.00;96124.72;1036399;28;20033;-79
2021/08/21 00:05:21;;;;;;;7.90;5.97;;;;;;;17.65;100.00;96122.81;1040685;28;20108;-79
2021/08/21 00:05:52;;;;;;;8.80;5.80;;;;;;;17.66;100.00;96116.31;1040424;28;20025;-79
2021/08/21 00:06:22;;;;;;;10.60;6.40;;;;;;;17.66;100.00;96117.09;1032500;28;20045;-79
2021/08/21 00:06:53;;;;;;;11.07;5.90;;;;;;;17.67;100.00;96118.69;1032185;28;20392;-80
2021/08/21 00:07:23;;;;;;;9.93;6.00;;;;;;;17.67;100.00;96113.28;1028146;28;20491;-79
2021/08/21 00:07:53;;;;;;;10.07;5.97;;;;;;;17.69;100.00;96118.38;1024089;29;20034;-79
2021/08/21 00:08:24;;;;;;;10.40;6.10;;;;;;;17.69;100.00;96118.38;1024123;29;20027;-79
2021/08/21 00:08:54;;;;;;;12.33;6.00;;;;;;;17.62;100.00;96113.44;1024307;28;20024;-78
2021/08/21 00:09:25;;;;;;;8.90;6.27;;;;;;;17.62;100.00;96116.13;1028293;28;20027;-79
2021/08/21 00:09:55;;;;;;;11.80;6.13;;;;;;;17.60;100.00;96122.94;1036365;28;20434;-80
2021/08/21 00:10:28;;;;;;;12.23;6.00;;;;;;;17.60;100.00;96123.72;1040486;28;20025;-79
2021/08/21 00:10:58;;;;;;;8.93;5.75;;;;;;;17.62;100.00;96118.84;1039963;28;20025;-78
2021/08/21 00:11:29;;;;;;;8.60;5.67;;;;;;;17.63;100.00;96123.13;1028263;28;20034;-79
2021/08/21 00:11:59;;;;;;;9.80;6.10;;;;;;;17.62;100.00;96121.53;1028147;28;20114;-79
2021/08/21 00:12:30;;;;;;;8.80;6.00;;;;;;;17.58;100.00;96114.34;1028890;28;20026;-78
2021/08/21 00:13:00;;;;;;;14.83;6.53;;;;;;;17.55;100.00;96115.75;1036327;28;20037;-79
2021/08/21 00:13:30;;;;;;;9.10;6.43;;;;;;;17.50;100.00;96109.69;1036224;28;20029;-79
2021/08/21 00:14:01;;;;;;;12.10;7.37;;;;;;;17.50;100.00;96117.81;1040383;28;20021;-79
2021/08/21 00:14:31;;;;;;;10.73;7.67;;;;;;;17.48;100.00;96115.41;1040471;28;20025;-79
2021/08/21 00:15:04;;;;;;;10.47;7.40;;;;;;;17.46;100.00;96114.16;1040472;28;20026;-79
2021/08/21 00:15:34;;;;;;;11.57;6.78;;;;;;;17.44;100.00;96119.06;1031993;28;20487;-79
2021/08/21 00:16:05;;;;;;;13.90;7.07;;;;;;;17.41;100.00;96120.47;1032139;28;20025;-79
2021/08/21 00:16:35;;;;;;;10.37;6.93;;;;;;;17.40;100.00;96110.75;1036117;28;20029;-79
2021/08/21 00:17:06;;;;;;;10.73;7.20;;;;;;;17.36;100.00;96107.91;1032298;28;20022;-79
2021/08/21 00:17:37;;;;;;;11.50;6.83;;;;;;;17.33;100.00;96110.41;1032015;28;20046;-78
2021/08/21 00:18:07;;;;;;;10.63;6.32;;;;;;;17.28;100.00;96111.34;1028067;28;20092;-79
2021/08/21 00:18:38;;;;;;;9.97;7.00;;;;;;;17.26;100.00;96112.78;1028415;28;20073;-79
2021/08/21 00:19:08;;;;;;;13.63;7.10;;;;;;;17.27;100.00;96117.84;1028248;28;20045;-79
2021/08/21 00:19:39;;;;;;;9.90;6.63;;;;;;;17.24;100.00;96112.28;1032295;28;20026;-79
2021/08/21 00:20:09;;;;;;;14.73;7.60;;;;;;;17.23;100.00;96107.97;1032143;28;20042;-80
2021/08/21 00:20:40;;;;;;;12.70;7.00;;;;;;;17.22;100.00;96106.38;1032364;28;20018;-79
2021/08/21 00:21:13;;;;;;;9.47;6.87;;;;;;;17.23;100.00;96114.19;1036368;28;20017;-79
2021/08/21 00:21:44;;;;;;;10.95;7.28;;;;;;;17.23;100.00;96114.19;1036723;28;20057;-79
2021/08/21 00:22:14;;;;;;;9.90;6.63;;;;;;;17.27;100.00;96115.16;1032032;28;20027;-79
2021/08/21 00:22:44;;;;;;;11.33;6.00;;;;;;;17.29;100.00;96112.13;1036165;28;20016;-78
2021/08/21 00:23:15;;;;;;;11.57;6.20;;;;;;;17.28;100.00;96110.56;1040228;28;20024;-78
2021/08/21 00:23:45;;;;;;;10.10;6.90;;;;;;;17.24;100.00;96114.97;1032212;28;20034;-78
2021/08/21 00:24:16;;;;;;;9.60;6.87;;;;;;;17.24;100.00;96114.97;1032192;28;20034;-78
2021/08/21 00:24:46;;;;;;;11.53;7.00;;;;;;;17.24;100.00;96110.38;1028582;28;20058;-81
2021/08/21 00:25:17;;;;;;;11.10;6.67;;;;;;;17.24;100.00;96109.56;1024494;29;20050;-79
2021/08/21 00:25:47;;;;;;;11.73;6.83;;;;;;;17.23;100.00;96110.69;1032366;28;20022;-79
2021/08/21 00:26:17;;;;;;;12.97;7.30;;;;;;;17.23;100.00;96113.38;1028342;28;20027;-78
2021/08/21 00:26:48;;;;;;;10.73;6.63;;;;;;;17.20;100.00;96108.59;1028379;28;20027;-79
2021/08/21 00:27:18;;;;;;;10.30;6.87;;;;;;;17.20;100.00;96113.97;1032402;28;20029;-79
2021/08/21 00:27:49;;;;;;;8.17;6.17;;;;;;;17.21;100.00;96113.69;1032333;28;20037;-79
2021/08/21 00:28:19;;;;;;;9.67;6.80;;;;;;;17.21;100.00;96113.69;1024419;28;20026;-79
2021/08/21 00:28:50;;;;;;;12.30;6.83;;;;;;;17.19;100.00;96109.69;1032218;28;20084;-79
2021/08/21 00:29:20;;;;;;;11.17;6.93;;;;;;;17.19;100.00;96112.41;1032184;28;20053;-79
2021/08/21 00:29:50;;;;;;;9.90;6.40;;;;;;;17.18;100.00;96108.91;1032359;28;20026;-79
2021/08/21 00:30:21;;;;;;;11.50;6.87;;;;;;;17.17;100.00;96114.63;1036086;28;20026;-79
2021/08/21 00:30:51;;;;;;;9.87;6.67;;;;;;;17.17;100.00;96112.72;1032230;28;20072;-79
2021/08/21 00:31:22;;;;;;;9.77;6.47;;;;;;;17.14;100.00;96110.63;1032078;28;20550;-79
2021/08/21 00:31:52;;;;;;;11.90;6.77;;;;;;;17.15;100.00;96112.25;1028274;28;20027;-78
2021/08/21 00:32:23;;;;;;;10.87;6.40;;;;;;;17.14;100.00;96099.81;1028302;28;20039;-79
2021/08/21 00:32:53;;;;;;;10.20;6.63;;;;;;;17.10;100.00;96110.47;1028029;28;20030;-79
2021/08/21 00:33:23;;;;;;;11.57;6.70;;;;;;;17.10;100.00;96105.06;1028209;28;20056;-79
2021/08/21 00:33:54;;;;;;;10.47;6.80;;;;;;;17.09;100.00;96105.34;1032249;28;20514;-79
2021/08/21 00:34:24;;;;;;;13.73;6.83;;;;;;;17.07;100.00;96105.66;1028194;28;20069;-79
2021/08/21 00:34:55;;;;;;;9.70;7.03;;;;;;;17.05;100.00;96110.59;1028146;28;20034;-79
2021/08/21 00:35:25;;;;;;;10.73;6.57;;;;;;;17.03;100.00;96106.59;1032128;28;20021;-79
2021/08/21 00:35:56;;;;;;;12.37;7.03;;;;;;;17.02;100.00;96107.69;1032418;28;20061;-79
2021/08/21 00:36:26;;;;;;;11.17;6.87;;;;;;;17.00;100.00;96102.63;1040405;28;20029;-79
2021/08/21 00:36:57;;;;;;;9.60;7.00;;;;;;;16.96;100.00;96104.34;1040236;28;20025;-79
2021/08/21 00:37:27;;;;;;;12.93;7.60;;;;;;;16.92;100.00;96103.34;1036235;28;20014;-78
2021/08/21 00:37:58;;;;;;;14.23;7.57;;;;;;;16.94;100.00;96111.13;1032286;28;20050;-79
2021/08/21 00:38:28;;;;;;;11.57;7.70;;;;;;;16.87;100.00;96106.97;1036259;28;20022;-79
2021/08/21 00:38:58;;;;;;;11.77;7.77;;;;;;;16.87;100.00;96106.97;1040355;28;20371;-79
2021/08/21 00:39:29;;;;;;;12.50;7.57;;;;;;;16.80;100.00;96109.31;1036248;28;20565;-79
2021/08/21 00:39:59;;;;;;;12.33;7.30;;;;;;;16.80;100.00;96098.50;1032144;28;20479;-79
2021/08/21 00:40:30;;;;;;;11.23;7.23;;;;;;;16.77;100.00;96101.00;1032049;28;20030;-79
2021/08/21 00:41:00;;;;;;;11.47;7.63;;;;;;;16.73;100.00;96102.72;1040186;28;20057;-79
2021/08/21 00:41:32;;;;;;;12.00;7.27;;;;;;;16.70;100.00;96104.13;1036046;28;20035;-78
2021/08/21 00:42:04;;;;;;;9.65;7.05;;;;;;;16.69;100.00;96101.72;1028099;28;20035;-79
2021/08/21 00:42:34;;;;;;;11.55;7.63;;;;;;;16.72;100.00;96101.13;1028138;28;20423;-79
2021/08/21 00:43:05;;;;;;;10.33;7.50;;;;;;;16.73;100.00;96108.91;1031962;28;20029;-79
2021/08/21 00:43:36;;;;;;;13.60;7.87;;;;;;;16.72;100.00;96104.63;1044301;28;20024;-79
2021/08/21 00:44:06;;;;;;;20.70;7.57;;;;;;;16.70;100.00;96112.22;1040128;28;20466;-79
2021/08/21 00:44:38;;;;;;;15.70;7.73;;;;;;;16.71;100.00;96104.91;1028023;28;20026;-79
2021/08/21 00:45:09;;;;;;;15.73;8.00;;;;;;;16.71;100.00;96102.22;1036009;28;20112;-79
2021/08/21 00:45:40;;;;;;;13.13;7.37;;;;;;;16.68;100.00;96103.59;1031940;28;20062;-78
2021/08/21 00:46:10;;;;;;;12.40;8.10;;;;;;;16.67;100.00;96102.00;1032124;28;20269;-78
2021/08/21 00:47:11;;;;;;;11.97;7.40;;;;;;;16.67;100.00;96106.63;1024113;29;20028;-79
2021/08/21 00:47:41;;;;;;;15.23;8.57;;;;;;;16.68;100.00;96108.22;1032039;28;20038;-78
2021/08/21 00:48:12;;;;;;;10.97;7.67;;;;;;;16.68;100.00;96106.31;1036218;28;20033;-79
2021/08/21 00:48:42;;;;;;;13.60;7.90;;;;;;;16.69;100.00;96102.53;1036110;28;20060;-79
2021/08/21 00:49:13;;;;;;;11.53;7.97;;;;;;;16.69;100.00;96107.13;1031991;28;20034;-78
2021/08/21 00:49:48;;;;;;;13.67;8.27;;;;;;;16.69;100.00;96104.44;1028047;28;20081;-78
2021/08/21 00:50:18;;;;;;;10.27;7.95;;;;;;;16.68;100.00;96102.81;1028543;28;20523;-79
2021/08/21 00:50:48;;;;;;;13.20;7.83;;;;;;;16.69;100.00;96107.91;1028054;28;20034;-79
2021/08/21 00:51:19;;;;;;;12.63;8.13;;;;;;;16.69;100.00;96104.44;1023962;29;20031;-78
2021/08/21 00:51:49;;;;;;;13.27;8.67;;;;;;;16.69;100.00;96102.53;1027933;28;20030;-78
2021/08/21 00:52:26;;;;;;;12.40;8.53;;;;;;;16.73;100.00;96100.03;1027684;28;20034;-78
2021/08/21 00:52:57;;;;;;;12.73;8.30;;;;;;;16.74;100.00;96101.63;1028029;28;20035;-79
2021/08/21 00:53:31;;;;;;;11.10;7.77;;;;;;;16.74;100.00;96099.75;1031746;28;20027;-79
2021/08/21 00:54:02;;;;;;;12.27;7.85;;;;;;;16.75;100.00;96103.22;1041675;28;20025;-78
2021/08/21 00:54:32;;;;;;;11.57;7.50;;;;;;;16.74;100.00;96096.25;1040227;28;20032;-79
2021/08/21 00:55:03;;;;;;;12.57;8.00;;;;;;;16.71;100.00;96097.63;1035952;28;20014;-79
2021/08/21 00:55:34;;;;;;;11.18;7.75;;;;;;;16.74;100.00;96097.03;1028010;28;20094;-79
2021/08/21 00:56:05;;;;;;;12.37;7.70;;;;;;;16.77;100.00;96099.09;1027952;28;20106;-79
2021/08/21 00:56:35;;;;;;;11.90;7.77;;;;;;;16.78;100.00;96092.59;1031985;28;20396;-79
2021/08/21 00:57:06;;;;;;;10.40;7.60;;;;;;;16.78;100.00;96084.50;1036093;28;20434;-79
2021/08/21 00:57:37;;;;;;;10.93;7.82;;;;;;;16.75;100.00;96098.63;1032173;28;20033;-79
2021/08/21 00:58:07;;;;;;;11.70;7.47;;;;;;;16.74;100.00;96096.25;1023969;28;20019;-79
2021/08/21 00:58:37;;;;;;;11.23;8.03;;;;;;;16.71;100.00;96100.34;1036081;28;20411;-79
2021/08/21 00:59:09;;;;;;;13.87;8.37;;;;;;;16.73;100.00;96091.94;1032025;28;20487;-79
2021/08/21 00:59:40;;;;;;;10.98;7.95;;;;;;;16.72;100.00;96090.34;1040041;28;20450;-79
2021/08/21 01:00:10;;;;;;;12.73;7.53;;;;;;;16.72;100.00;96098.44;1031985;28;20018;-79
2021/08/21 01:00:41;;;;;;;12.30;8.27;;;;;;;16.72;100.00;96096.53;1023911;29;20034;-79
2021/08/21 01:01:12;;;;;;;11.43;7.60;;;;;;;16.71;100.00;96089.53;1027728;28;20023;-79
2021/08/21 01:01:42;;;;;;;14.00;8.07;;;;;;;16.70;100.00;96097.94;1031704;28;20274;-79
2021/08/21 01:02:13;;;;;;;11.37;7.47;;;;;;;16.72;100.00;96098.44;1035959;28;20014;-79
2021/08/21 01:02:43;;;;;;;11.60;8.13;;;;;;;16.73;100.00;96098.13;1036090;28;20026;-79
2021/08/21 01:03:13;;;;;;;11.80;7.77;;;;;;;16.74;100.00;96096.25;1031846;28;20018;-79
2021/08/21 01:03:44;;;;;;;13.70;8.10;;;;;;;16.75;100.00;96097.84;1027990;28;20022;-79
2021/08/21 01:04:14;;;;;;;11.70;7.47;;;;;;;16.75;100.00;96095.13;1028006;28;20019;-80
2021/08/21 01:04:50;;;;;;;12.23;8.23;;;;;;;16.74;100.00;96098.94;1031906;28;20385;-79
2021/08/21 01:05:20;;;;;;;10.88;7.80;;;;;;;16.73;100.00;96094.63;1023906;29;20452;-80
2021/08/21 01:05:51;;;;;;;11.93;8.13;;;;;;;16.71;100.00;96100.34;1023843;29;20019;-79
2021/08/21 01:06:22;;;;;;;10.85;7.75;;;;;;;16.73;100.00;96100.81;1032836;28;20518;-79
2021/08/21 01:06:52;;;;;;;10.70;7.93;;;;;;;16.74;100.00;96094.34;1032806;28;20041;-81
2021/08/21 01:07:27;;;;;;;11.17;8.23;;;;;;;16.78;100.00;96091.81;1032064;28;20511;-79
2021/08/21 01:07:58;;;;;;;16.77;8.40;;;;;;;16.79;100.00;96094.22;1036720;28;20151;-80
2021/08/21 01:08:28;;;;;;;10.67;7.60;;;;;;;16.81;100.00;96096.59;1040763;28;20482;-79
2021/08/21 01:08:58;;;;;;;11.37;7.43;;;;;;;16.83;100.00;96097.09;1044320;28;20017;-79
2021/08/21 01:09:29;;;;;;;10.03;7.70;;;;;;;16.83;100.00;96094.38;1044208;28;20036;-79
2021/08/21 01:10:09;;;;;;;11.87;7.60;;;;;;;16.83;100.00;96097.09;1044261;28;20071;-79
2021/08/21 01:10:40;;;;;;;11.38;7.75;;;;;;;16.84;100.00;96094.09;1044275;28;20075;-79
2021/08/21 01:11:10;;;;;;;10.83;7.80;;;;;;;16.85;100.00;96090.28;1031922;28;20018;-79
2021/08/21 01:11:41;;;;;;;14.50;7.80;;;;;;;16.85;100.00;96098.38;1033444;28;20027;-79
2021/08/21 01:12:12;;;;;;;13.67;8.00;;;;;;;16.85;100.00;96100.28;1031996;28;20408;-79
2021/08/21 01:12:43;;;;;;;12.25;7.85;;;;;;;16.83;100.00;96095.19;1032515;28;20109;-79
2021/08/21 01:13:13;;;;;;;11.15;7.40;;;;;;;16.83;100.00;96095.19;1044238;28;20020;-80
2021/08/21 01:13:44;;;;;;;12.70;7.47;;;;;;;16.85;100.00;96092.19;1040090;28;20021;-79
2021/08/21 01:14:14;;;;;;;12.13;7.60;;;;;;;16.85;100.00;96084.09;1036007;28;20014;-79
2021/08/21 01:14:45;;;;;;;12.17;7.03;;;;;;;16.84;100.00;96093.31;1032008;28;20018;-79
2021/08/21 01:15:17;;;;;;;10.97;7.00;;;;;;;16.82;100.00;96092.78;1032202;28;20033;-79
2021/08/21 01:15:47;;;;;;;10.25;7.57;;;;;;;16.81;100.00;96092.00;1040442;28;20013;-79
2021/08/21 01:16:18;;;;;;;11.47;7.67;;;;;;;16.83;100.00;96095.19;1035920;28;20041;-79
2021/08/21 01:16:48;;;;;;;11.40;7.67;;;;;;;16.83;100.00;96095.19;1028274;28;20027;-79
2021/08/21 01:17:19;;;;;;;13.73;6.93;;;;;;;16.82;100.00;96092.78;1031934;28;20007;-79
2021/08/21 01:17:50;;;;;;;12.60;7.27;;;;;;;16.81;100.00;96092.00;1031962;28;20034;-79
2021/08/21 01:18:22;;;;;;;11.10;7.18;;;;;;;16.82;100.00;96096.28;1032018;28;20041;-79
2021/08/21 01:18:52;;;;;;;10.77;7.57;;;;;;;16.80;100.00;96093.09;1035886;28;20029;-78
2021/08/21 01:19:23;;;;;;;11.27;7.23;;;;;;;16.77;100.00;96095.63;1032903;28;20023;-79
2021/08/21 01:19:53;;;;;;;11.87;7.07;;;;;;;16.77;100.00;96090.22;1035734;28;20021;-79
2021/08/21 01:20:25;;;;;;;12.27;7.70;;;;;;;16.73;100.00;96089.22;1035844;28;20025;-79
2021/08/21 01:20:56;;;;;;;14.65;7.22;;;;;;;16.70;100.00;96095.22;1035799;28;20037;-77
2021/08/21 01:21:26;;;;;;;13.33;7.87;;;;;;;16.68;100.00;96090.13;1028462;28;20029;-79
2021/08/21 01:21:57;;;;;;;10.13;7.50;;;;;;;16.64;100.00;96095.34;1027891;28;20031;-78
2021/08/21 01:22:27;;;;;;;11.60;7.93;;;;;;;16.62;100.00;96100.22;1028000;28;20015;-78
2021/08/21 01:23:01;;;;;;;12.83;7.60;;;;;;;16.56;100.00;96092.56;1032031;28;20026;-79
2021/08/21 01:23:32;;;;;;;12.65;8.20;;;;;;;16.55;100.00;96099.06;1040506;28;20021;-78
2021/08/21 01:24:04;;;;;;;13.17;8.40;;;;;;;16.51;100.00;96104.28;1036353;28;20540;-79
2021/08/21 01:24:38;;;;;;;17.20;8.50;;;;;;;16.50;100.00;96096.50;1031794;28;20142;-78
2021/08/21 01:25:11;;;;;;;16.45;8.85;;;;;;;16.45;100.00;96089.31;1031718;28;20033;-78
2021/08/21 01:25:41;;;;;;;11.80;7.97;;;;;;;16.42;100.00;96094.50;1031824;28;20027;-79
2021/08/21 01:26:12;;;;;;;13.37;7.90;;;;;;;16.41;100.00;96104.50;1027813;28;20150;-79
2021/08/21 01:26:57;;;;;;;11.67;7.80;;;;;;;16.37;100.00;96095.41;1023806;29;20063;-78
2021/08/21 01:27:31;;;;;;;13.18;7.75;;;;;;;16.36;100.00;96096.53;1027775;28;20027;-79
2021/08/21 01:28:02;;;;;;;14.82;7.95;;;;;;;16.32;100.00;96098.22;1026294;28;20038;-79
2021/08/21 01:28:32;;;;;;;16.13;8.43;;;;;;;16.32;100.00;96096.31;1031786;28;20411;-80
2021/08/21 01:29:05;;;;;;;12.83;8.43;;;;;;;16.33;100.00;96103.34;1032374;28;20034;-79
2021/08/21 01:29:37;;;;;;;15.57;8.45;;;;;;;16.32;100.00;96098.22;1035815;28;20025;-79
2021/08/21 01:30:07;;;;;;;12.82;7.90;;;;;;;16.29;100.00;96101.53;1036486;28;20113;-79
2021/08/21 01:30:38;;;;;;;12.40;8.97;;;;;;;16.27;100.00;96098.34;1032867;28;20045;-79
2021/08/21 01:31:08;;;;;;;13.77;7.90;;;;;;;16.27;100.00;96098.34;1035877;28;20034;-80
2021/08/21 01:31:39;;;;;;;12.27;8.23;;;;;;;16.27;100.00;96098.34;1035879;28;20046;-79
2021/08/21 01:32:09;;;;;;;13.73;7.97;;;;;;;16.24;100.00;96110.53;1031897;28;20027;-79
2021/08/21 01:32:39;;;;;;;13.37;9.00;;;;;;;16.23;100.00;96095.47;1035899;28;20064;-79
2021/08/21 01:33:10;;;;;;;13.33;8.37;;;;;;;16.19;100.00;96105.25;1044091;28;20126;-80
2021/08/21 01:33:40;;;;;;;13.17;8.07;;;;;;;16.10;100.00;96104.38;1044098;28;20078;-79
2021/08/21 01:34:11;;;;;;;10.93;7.60;;;;;;;16.13;100.00;96103.00;1044406;28;20025;-80
2021/08/21 01:34:41;;;;;;;10.10;7.43;;;;;;;16.14;100.00;96102.66;1039919;28;20063;-80
2021/08/21 01:35:12;;;;;;;12.77;7.90;;;;;;;16.16;100.00;96096.97;1035792;28;20122;-79
2021/08/21 01:35:42;;;;;;;10.60;7.67;;;;;;;16.13;100.00;96098.38;1035757;28;20018;-79
2021/08/21 01:36:12;;;;;;;12.90;8.27;;;;;;;16.09;100.00;96102.78;1031997;28;20038;-79
2021/08/21 01:36:47;;;;;;;11.50;8.07;;;;;;;16.03;100.00;96102.09;1039798;28;20025;-79
2021/08/21 01:37:18;;;;;;;11.20;8.07;;;;;;;16.01;100.00;96101.59;1031870;28;20392;-79
2021/08/21 01:37:49;;;;;;;9.82;7.45;;;;;;;15.98;100.00;96096.81;1028440;28;20023;-79
2021/08/21 01:38:19;;;;;;;12.30;7.73;;;;;;;15.97;100.00;96103.31;1028473;28;20118;-79
2021/08/21 01:38:55;;;;;;;11.00;7.50;;;;;;;15.95;100.00;96102.78;1032524;28;20030;-79
2021/08/21 01:39:25;;;;;;;10.68;7.40;;;;;;;15.93;100.00;96099.59;1039961;28;20808;-79
2021/08/21 01:39:56;;;;;;;12.63;7.40;;;;;;;15.91;100.00;96093.72;1036644;28;20041;-79
2021/08/21 01:40:26;;;;;;;12.13;7.47;;;;;;;15.86;100.00;96100.00;1031746;28;20112;-79
2021/08/21 01:40:57;;;;;;;10.27;7.50;;;;;;;15.85;100.00;96098.41;1023906;28;20031;-79
2021/08/21 01:41:27;;;;;;;10.33;7.03;;;;;;;15.82;100.00;96098.22;1031830;28;20062;-79
2021/08/21 01:41:57;;;;;;;13.07;7.60;;;;;;;15.81;100.00;96099.31;1035751;28;20414;-79
2021/08/21 01:42:28;;;;;;;10.37;7.03;;;;;;;15.80;100.00;96097.72;1031785;28;20511;-79
2021/08/21 01:42:58;;;;;;;13.00;7.10;;;;;;;15.80;100.00;96100.41;1035728;28;20416;-79
2021/08/21 01:43:29;;;;;;;10.70;7.30;;;;;;;15.77;100.00;96098.34;1035744;28;20069;-79
2021/08/21 01:43:59;;;;;;;12.77;7.27;;;;;;;15.77;100.00;96092.94;1031767;28;20431;-79
2021/08/21 01:44:30;;;;;;;11.00;7.23;;;;;;;15.76;100.00;96092.13;1031824;28;20038;-79
2021/08/21 01:45:00;;;;;;;10.47;7.23;;;;;;;15.75;100.00;96093.22;1031883;28;20022;-79
2021/08/21 01:45:30;;;;;;;9.67;7.00;;;;;;;15.75;100.00;96093.22;1035903;28;20030;-79
2021/08/21 01:46:01;;;;;;;9.57;6.40;;;;;;;15.73;100.00;96094.63;1035840;28;20029;-78
2021/08/21 01:46:31;;;;;;;10.80;6.93;;;;;;;15.71;100.00;96096.81;1035899;28;20049;-78
2021/08/21 01:47:02;;;;;;;13.43;7.20;;;;;;;15.71;100.00;96099.50;1035863;28;20554;-78
2021/08/21 01:47:32;;;;;;;11.60;7.10;;;;;;;15.71;100.00;96099.50;1039878;28;20028;-79
2021/08/21 01:48:03;;;;;;;11.43;7.40;;;;;;;15.71;100.00;96094.91;1039982;28;20040;-79
2021/08/21 01:48:33;;;;;;;13.37;7.17;;;;;;;15.71;100.00;96092.22;1044439;28;20017;-79
2021/08/21 01:49:07;;;;;;;11.83;7.03;;;;;;;15.71;100.00;96103.00;1043962;28;20025;-79
2021/08/21 01:49:38;;;;;;;10.95;7.25;;;;;;;15.72;100.00;96107.31;1043999;28;20025;-79
2021/08/21 01:50:10;;;;;;;10.30;7.20;;;;;;;15.75;100.00;96097.81;1044001;28;20053;-78
2021/08/21 01:50:41;;;;;;;9.57;6.53;;;;;;;15.76;100.00;96091.31;1036552;28;20541;-79
2021/08/21 01:51:11;;;;;;;11.30;6.93;;;;;;;15.76;100.00;96094.00;1039893;28;20030;-79
2021/08/21 01:51:43;;;;;;;9.60;7.27;;;;;;;15.75;100.00;96092.44;1039906;28;20438;-79
2021/08/21 01:52:14;;;;;;;13.63;7.20;;;;;;;15.73;100.00;96091.94;1040259;28;20378;-79
2021/08/21 01:52:45;;;;;;;9.20;6.73;;;;;;;15.74;100.00;96093.53;1044328;28;20080;-79
2021/08/21 01:53:16;;;;;;;9.95;6.80;;;;;;;15.72;100.00;96101.91;1043988;28;20499;-79
2021/08/21 01:53:46;;;;;;;10.90;7.47;;;;;;;15.73;100.00;96097.31;1039791;28;20153;-79
2021/08/21 01:54:17;;;;;;;14.53;7.53;;;;;;;15.73;100.00;96102.72;1031710;28;20022;-78
2021/08/21 01:54:47;;;;;;;13.33;7.30;;;;;;;15.73;100.00;96100.03;1031956;28;20035;-79
2021/08/21 01:55:21;;;;;;;10.90;7.13;;;;;;;15.71;100.00;96099.50;1031911;28;20041;-79
2021/08/21 01:55:52;;;;;;;10.68;7.32;;;;;;;15.70;100.00;96093.31;1036979;28;20486;-78
2021/08/21 01:56:23;;;;;;;10.30;6.67;;;;;;;15.72;100.00;96093.03;1043903;28;20036;-79
2021/08/21 01:56:55;;;;;;;10.48;6.95;;;;;;;15.73;100.00;96105.41;1040620;28;20105;-79
2021/08/21 01:57:25;;;;;;;13.35;7.35;;;;;;;15.73;100.00;96097.31;1044052;28;20449;-79
2021/08/21 01:57:56;;;;;;;12.87;7.10;;;;;;;15.74;100.00;96105.09;1043914;28;20044;-79
2021/08/21 01:58:26;;;;;;;10.30;6.97;;;;;;;15.74;100.00;96097.00;1044041;28;20014;-78
2021/08/21 01:58:57;;;;;;;11.33;7.13;;;;;;;15.74;100.00;96094.31;1044289;28;20025;-79
2021/08/21 01:59:34;;;;;;;10.60;6.83;;;;;;;15.73;100.00;96103.50;1044347;28;20029;-79
2021/08/21 02:00:05;;;;;;;9.18;6.75;;;;;;;15.74;100.00;96105.09;1035688;28;20026;-79
2021/08/21 02:00:36;;;;;;;13.23;7.37;;;;;;;15.72;100.00;96101.91;1027655;28;20034;-79
2021/08/21 02:01:06;;;;;;;8.87;7.07;;;;;;;15.70;100.00;96093.31;1027727;28;20269;-78
2021/08/21 02:01:36;;;;;;;11.23;7.23;;;;;;;15.69;100.00;96097.13;1028245;28;20535;-79
2021/08/21 02:02:08;;;;;;;14.03;7.70;;;;;;;15.69;100.00;96099.81;1040033;28;20048;-78
2021/08/21 02:02:39;;;;;;;10.73;7.15;;;;;;;15.67;100.00;96099.31;1044019;28;20032;-78
2021/08/21 02:03:09;;;;;;;11.20;7.40;;;;;;;15.66;100.00;96096.91;1039802;28;20087;-79
2021/08/21 02:03:42;;;;;;;10.83;7.20;;;;;;;15.64;100.00;96101.81;1039861;28;20025;-79
2021/08/21 02:04:12;;;;;;;10.35;7.03;;;;;;;15.64;100.00;96102.59;1032177;28;20022;-78
2021/08/21 02:04:43;;;;;;;10.00;6.73;;;;;;;15.63;100.00;96097.50;1032415;28;20137;-78
2021/08/21 02:05:13;;;;;;;9.60;6.97;;;;;;;15.63;100.00;96094.81;1036730;28;20033;-79
2021/08/21 02:05:44;;;;;;;11.67;7.30;;;;;;;15.62;100.00;96095.91;1037038;28;20033;-78
2021/08/21 02:06:14;;;;;;;13.07;7.67;;;;;;;15.61;100.00;96100.50;1040742;28;20030;-78
2021/08/21 02:06:45;;;;;;;11.73;6.83;;;;;;;15.62;100.00;96093.22;1045195;28;20025;-79
2021/08/21 02:07:15;;;;;;;15.90;6.87;;;;;;;15.62;100.00;96098.59;1044828;28;20029;-79
2021/08/21 02:07:45;;;;;;;14.40;8.00;;;;;;;15.61;100.00;96097.81;1044838;28;20044;-79
2021/08/21 02:08:17;;;;;;;8.73;6.80;;;;;;;15.61;100.00;96097.81;1044841;28;20036;-78
2021/08/21 02:08:47;;;;;;;14.55;7.65;;;;;;;15.60;100.00;96098.88;1040876;28;20041;-79
2021/08/21 02:09:19;;;;;;;12.50;7.20;;;;;;;15.61;100.00;96092.41;1044898;28;20111;-79
2021/08/21 02:09:49;;;;;;;10.13;6.85;;;;;;;15.64;100.00;96097.22;1036537;28;20026;-79
2021/08/21 02:10:20;;;;;;;11.37;7.37;;;;;;;15.64;100.00;96096.44;1032907;28;20018;-79
2021/08/21 02:10:50;;;;;;;9.70;7.50;;;;;;;15.62;100.00;96095.91;1036570;28;20021;-78
2021/08/21 02:11:21;;;;;;;10.10;6.97;;;;;;;15.61;100.00;96097.81;1036797;28;20021;-79
2021/08/21 02:11:52;;;;;;;10.17;7.03;;;;;;;15.64;100.00;96099.13;1040689;28;20028;-79
2021/08/21 02:12:22;;;;;;;12.80;7.60;;;;;;;15.60;100.00;96086.19;1044832;28;20048;-79
2021/08/21 02:12:53;;;;;;;11.20;7.20;;;;;;;15.59;100.00;96095.38;1044695;28;20037;-79
2021/08/21 02:13:23;;;;;;;11.40;7.10;;;;;;;15.60;100.00;96099.66;1040890;28;20017;-78
2021/08/21 02:13:54;;;;;;;9.60;6.93;;;;;;;15.59;100.00;96100.78;1044784;28;20477;-79
2021/08/21 02:14:24;;;;;;;11.40;7.80;;;;;;;15.58;100.00;96096.50;1044834;28;20024;-79
2021/08/21 02:14:54;;;;;;;12.03;7.10;;;;;;;15.56;100.00;96096.00;1044760;28;20025;-78
2021/08/21 02:15:25;;;;;;;18.97;7.70;;;;;;;15.51;100.00;96088.03;1045158;28;20024;-78
2021/08/21 02:15:55;;;;;;;10.77;7.03;;;;;;;15.48;100.00;96099.38;1045069;28;20017;-79
2021/08/21 02:16:27;;;;;;;10.43;7.47;;;;;;;15.45;100.00;96093.78;1045066;28;20033;-78
2021/08/21 02:16:59;;;;;;;11.60;7.82;;;;;;;15.46;100.00;96095.41;1044994;28;20359;-78
2021/08/21 02:17:30;;;;;;;11.57;7.45;;;;;;;15.46;100.00;96095.41;1044954;28;20017;-78
2021/08/21 02:18:00;;;;;;;9.83;7.70;;;;;;;15.46;100.00;96092.72;1045139;28;20411;-78
2021/08/21 02:18:31;;;;;;;11.27;7.77;;;;;;;15.45;100.00;96091.88;1044778;28;20477;-79
2021/08/21 02:19:01;;;;;;;10.53;7.53;;;;;;;15.44;100.00;96089.50;1044736;28;20048;-79
2021/08/21 02:19:32;;;;;;;12.03;7.50;;;;;;;15.44;100.00;96092.19;1044812;28;20048;-78
2021/08/21 02:20:03;;;;;;;11.83;8.40;;;;;;;15.43;100.00;96091.41;1040796;28;20493;-79
2021/08/21 02:20:33;;;;;;;11.07;7.93;;;;;;;15.41;100.00;96090.09;1044750;28;20060;-78
2021/08/21 02:21:04;;;;;;;11.07;7.77;;;;;;;15.36;100.00;96091.00;1044751;28;20033;-79
2021/08/21 02:21:34;;;;;;;10.57;7.87;;;;;;;15.39;100.00;96093.06;1044773;28;20048;-78
2021/08/21 02:22:05;;;;;;;9.87;7.30;;;;;;;15.40;100.00;96086.59;1044818;28;20021;-79
2021/08/21 02:22:35;;;;;;;10.73;7.50;;;;;;;15.41;100.00;96088.22;1045096;28;20009;-79
2021/08/21 02:23:06;;;;;;;13.10;7.30;;;;;;;15.45;100.00;96088.41;1045086;28;20394;-79